Time;durP1;ratioP1;P1;durP2;ratioP2;P2;SDS_P1;SDS_P2;PMS_P1;PMS_P2;Temp;Humidity;BMP_temperature;BMP_pressure;BME280_temperature;BME280_humidity;BME280_pressure;Samples;Min_cycle;Max_cycle;Signal;HPM_P1;HPM_P2
2023/09/11 00:02:08;;;;;;;4.10;2.47;;;23.10;55.00;;;;;;2520219;54;21016;-66
2023/09/11 00:04:35;;;;;;;5.37;2.35;;;23.10;54.40;;;;;;2287816;55;20934;-68
2023/09/11 00:07:03;;;;;;;4.47;2.37;;;23.00;54.40;;;;;;2519996;54;21094;-70
2023/09/11 00:09:29;;;;;;;3.60;2.17;;;23.00;54.40;;;;;;2520089;54;21407;-68
2023/09/11 00:11:55;;;;;;;6.75;2.70;;;23.00;54.50;;;;;;2285348;55;21061;-68
2023/09/11 00:14:22;;;;;;;3.62;2.22;;;23.00;54.60;;;;;;2285275;55;21067;-66
2023/09/11 00:16:48;;;;;;;4.80;2.97;;;22.90;54.60;;;;;;2518001;54;20994;-68
2023/09/11 00:19:15;;;;;;;5.22;2.75;;;22.90;54.60;;;;;;2519526;54;20958;-68
2023/09/11 00:21:43;;;;;;;4.12;2.67;;;22.90;54.80;;;;;;2285283;55;21026;-69
2023/09/11 00:24:09;;;;;;;4.65;2.78;;;22.90;54.80;;;;;;2519323;54;20934;-67
2023/09/11 00:26:36;;;;;;;3.80;2.42;;;22.90;54.80;;;;;;2520369;54;20989;-68
2023/09/11 00:29:02;;;;;;;3.85;2.45;;;22.80;54.70;;;;;;2519653;54;21010;-68
2023/09/11 00:31:29;;;;;;;4.62;2.70;;;22.80;54.70;;;;;;2286732;55;21850;-70
2023/09/11 00:33:55;;;;;;;3.92;2.30;;;22.80;54.70;;;;;;2289334;55;20966;-70
2023/09/11 00:36:22;;;;;;;4.57;2.37;;;22.80;54.80;;;;;;2520335;54;20988;-67
2023/09/11 00:38:51;;;;;;;3.28;2.05;;;22.80;54.80;;;;;;2520530;54;21506;-68
2023/09/11 00:41:17;;;;;;;4.20;2.62;;;22.70;54.80;;;;;;2522260;54;21845;-69
2023/09/11 00:43:43;;;;;;;4.50;2.95;;;22.70;54.90;;;;;;2520751;54;20961;-67
2023/09/11 00:46:10;;;;;;;3.50;2.40;;;22.70;55.00;;;;;;2519698;54;20953;-69
2023/09/11 00:48:36;;;;;;;4.00;2.67;;;22.70;55.30;;;;;;2286111;55;20957;-67
2023/09/11 00:51:02;;;;;;;4.40;2.50;;;22.70;55.30;;;;;;2518418;54;21779;-67
2023/09/11 00:53:29;;;;;;;3.90;2.50;;;22.60;55.20;;;;;;2284743;55;20934;-68
2023/09/11 00:55:56;;;;;;;3.83;2.35;;;22.70;55.30;;;;;;2285616;55;20954;-66
2023/09/11 00:58:22;;;;;;;3.60;2.35;;;22.70;55.30;;;;;;2286221;55;20993;-66
2023/09/11 01:00:48;;;;;;;4.87;2.40;;;22.60;55.20;;;;;;2519859;54;20957;-67
2023/09/11 01:03:15;;;;;;;4.78;2.67;;;22.60;55.20;;;;;;2285077;55;20936;-67
2023/09/11 01:05:41;;;;;;;3.53;2.22;;;22.60;55.20;;;;;;2286505;55;21470;-68
2023/09/11 01:08:08;;;;;;;5.43;2.42;;;22.50;55.10;;;;;;2519550;54;20923;-68
2023/09/11 01:10:35;;;;;;;4.45;2.53;;;22.50;55.20;;;;;;2519795;54;20978;-67
2023/09/11 01:13:02;;;;;;;3.83;2.25;;;22.50;55.30;;;;;;2519112;54;21802;-68
2023/09/11 01:15:33;;;;;;;4.87;2.30;;;22.50;55.30;;;;;;2519302;54;21491;-68
2023/09/11 01:18:15;;;;;;;3.67;2.40;;;22.50;55.40;;;;;;2285199;55;21054;-68
2023/09/11 01:22:29;;;;;;;3.50;2.10;;;22.40;56.10;;;;;;2286588;55;20974;-68
2023/09/11 01:28:29;;;;;;;4.07;2.40;;;22.40;55.50;;;;;;2286109;55;21275;-66
2023/09/11 01:30:55;;;;;;;3.15;1.85;;;22.40;55.50;;;;;;2523436;54;20973;-69
2023/09/11 01:33:22;;;;;;;3.03;1.90;;;22.30;55.00;;;;;;2521607;54;21873;-69
2023/09/11 01:35:48;;;;;;;4.55;2.45;;;22.30;55.20;;;;;;2285573;55;20970;-67
2023/09/11 01:38:15;;;;;;;5.12;2.80;;;22.20;55.20;;;;;;2285727;55;21725;-68
2023/09/11 01:40:41;;;;;;;5.22;3.00;;;22.20;55.40;;;;;;2520290;54;20974;-68
2023/09/11 01:43:08;;;;;;;4.28;2.87;;;22.20;55.60;;;;;;2519567;54;21413;-68
2023/09/11 01:45:35;;;;;;;3.95;2.55;;;22.20;55.70;;;;;;2520183;54;21513;-68
2023/09/11 01:48:02;;;;;;;4.80;2.70;;;22.20;55.70;;;;;;2285923;55;21023;-69
2023/09/11 01:50:29;;;;;;;4.47;2.90;;;22.10;55.60;;;;;;2520653;54;20965;-66
2023/09/11 01:52:55;;;;;;;4.18;2.90;;;22.10;55.70;;;;;;2519400;54;20966;-68
2023/09/11 01:55:22;;;;;;;3.83;2.30;;;22.10;55.70;;;;;;2285543;55;20994;-68
2023/09/11 01:57:48;;;;;;;8.52;2.83;;;22.10;55.70;;;;;;2285359;55;21010;-70
2023/09/11 02:00:15;;;;;;;5.57;3.20;;;22.10;55.70;;;;;;2520185;54;21360;-66
2023/09/11 02:02:41;;;;;;;3.92;2.53;;;22.10;55.90;;;;;;2520368;54;20946;-70
2023/09/11 02:05:08;;;;;;;4.22;2.50;;;22.10;56.00;;;;;;2519846;54;21022;-68
2023/09/11 02:07:34;;;;;;;4.22;2.72;;;22.00;55.90;;;;;;2286625;55;22027;-69
2023/09/11 02:10:00;;;;;;;5.03;2.67;;;22.00;55.90;;;;;;2285740;55;21065;-66
2023/09/11 02:12:29;;;;;;;6.03;2.62;;;22.00;56.00;;;;;;2285838;55;20994;-69
2023/09/11 02:14:59;;;;;;;5.47;3.00;;;22.00;56.10;;;;;;2519046;54;20950;-69
2023/09/11 02:17:25;;;;;;;6.07;3.22;;;22.00;56.20;;;;;;2286897;55;20937;-68
2023/09/11 02:19:52;;;;;;;4.12;2.80;;;22.00;56.10;;;;;;2285779;55;20945;-68
2023/09/11 02:22:18;;;;;;;4.95;3.35;;;21.90;56.10;;;;;;2285768;55;20974;-68
2023/09/11 02:24:45;;;;;;;5.25;2.97;;;21.90;56.10;;;;;;2286082;55;20958;-68
2023/09/11 02:27:11;;;;;;;4.05;2.70;;;21.90;56.20;;;;;;2285409;55;20997;-68
2023/09/11 02:29:39;;;;;;;7.50;2.83;;;21.90;56.30;;;;;;2519817;54;20981;-69
2023/09/11 02:32:08;;;;;;;4.62;2.80;;;21.90;56.30;;;;;;2285739;55;20950;-68
2023/09/11 02:34:34;;;;;;;5.87;2.70;;;21.90;56.30;;;;;;2286319;55;20981;-68
2023/09/11 02:37:01;;;;;;;5.78;3.37;;;21.80;56.20;;;;;;2519232;54;21097;-67
2023/09/11 02:39:30;;;;;;;5.12;2.62;;;21.80;56.20;;;;;;2520198;54;20906;-70
2023/09/11 02:41:56;;;;;;;4.87;2.97;;;21.80;56.20;;;;;;2285583;55;20954;-67
2023/09/11 02:44:22;;;;;;;4.80;2.83;;;21.80;56.80;;;;;;2285361;55;21940;-68
2023/09/11 02:46:49;;;;;;;6.07;4.03;;;21.80;56.30;;;;;;2285549;55;21005;-68
2023/09/11 02:49:17;;;;;;;4.93;3.20;;;21.70;56.30;;;;;;2519828;54;20934;-68
2023/09/11 02:51:44;;;;;;;7.25;3.28;;;21.70;56.50;;;;;;2519926;54;21029;-68
2023/09/11 02:54:10;;;;;;;4.75;2.85;;;21.70;56.50;;;;;;2285488;55;21017;-68
2023/09/11 02:56:38;;;;;;;4.12;2.65;;;21.70;56.50;;;;;;2285825;55;20961;-67
2023/09/11 02:59:05;;;;;;;3.92;2.60;;;21.70;56.50;;;;;;2285442;55;20966;-67
2023/09/11 03:01:32;;;;;;;3.72;2.35;;;21.70;56.60;;;;;;2520231;54;20954;-68
2023/09/11 03:03:58;;;;;;;5.65;2.67;;;21.60;56.50;;;;;;2285848;55;21017;-66
2023/09/11 03:06:24;;;;;;;4.85;2.72;;;21.60;56.50;;;;;;2519127;54;20917;-66
2023/09/11 03:08:51;;;;;;;4.87;2.62;;;21.60;56.60;;;;;;2286419;55;20949;-68
2023/09/11 03:11:18;;;;;;;5.25;3.28;;;21.60;56.60;;;;;;2286057;55;21374;-68
2023/09/11 03:13:45;;;;;;;6.07;3.40;;;21.60;56.70;;;;;;2520045;54;21065;-70
2023/09/11 03:16:12;;;;;;;6.70;2.90;;;21.60;56.80;;;;;;2520137;54;20949;-67
2023/09/11 03:18:39;;;;;;;4.97;3.00;;;21.60;56.80;;;;;;2519391;54;20946;-68
2023/09/11 03:21:07;;;;;;;5.72;3.12;;;21.60;56.70;;;;;;2519097;54;21007;-68
2023/09/11 03:23:33;;;;;;;4.43;2.85;;;21.60;56.80;;;;;;2520230;54;20982;-67
2023/09/11 03:26:00;;;;;;;4.22;3.00;;;21.50;56.70;;;;;;2285386;55;20949;-70
2023/09/11 03:28:27;;;;;;;5.25;2.78;;;21.50;56.70;;;;;;2286333;55;20965;-68
2023/09/11 03:30:53;;;;;;;7.97;3.10;;;21.50;56.60;;;;;;2286477;55;21065;-67
2023/09/11 03:33:19;;;;;;;4.43;2.92;;;21.50;56.60;;;;;;2286084;55;20961;-67
2023/09/11 03:35:49;;;;;;;4.95;3.15;;;21.50;56.70;;;;;;2519960;54;20942;-68
2023/09/11 03:38:23;;;;;;;4.72;2.90;;;21.50;56.90;;;;;;2291993;55;20983;-69
2023/09/11 03:40:52;;;;;;;5.00;2.40;;;21.40;56.70;;;;;;2520174;54;21024;-69
2023/09/11 03:43:18;;;;;;;3.78;2.55;;;21.40;56.70;;;;;;2522301;54;21575;-68
2023/09/11 03:45:45;;;;;;;4.03;2.37;;;21.40;56.70;;;;;;2286182;55;20961;-71
2023/09/11 03:48:12;;;;;;;5.80;3.28;;;21.40;56.70;;;;;;2519992;54;20949;-68
2023/09/11 03:50:42;;;;;;;4.85;2.95;;;21.40;56.70;;;;;;2285806;55;21077;-70
2023/09/11 03:53:08;;;;;;;4.45;2.87;;;21.40;56.80;;;;;;2285400;55;21001;-68
2023/09/11 03:55:36;;;;;;;6.30;2.70;;;21.30;56.80;;;;;;2286635;55;20922;-68
2023/09/11 03:58:10;;;;;;;5.05;3.15;;;21.30;56.80;;;;;;2518182;54;20945;-68
2023/09/11 04:00:36;;;;;;;5.60;3.62;;;21.30;56.90;;;;;;2285886;55;21054;-70
2023/09/11 04:03:03;;;;;;;7.25;3.42;;;21.30;57.00;;;;;;2286185;55;20961;-70
2023/09/11 04:05:29;;;;;;;6.07;2.92;;;21.30;57.10;;;;;;2520624;54;21825;-68
2023/09/11 04:07:56;;;;;;;5.53;3.80;;;21.20;57.00;;;;;;2291156;55;21398;-67
2023/09/11 04:10:23;;;;;;;7.05;3.40;;;21.20;57.00;;;;;;2519095;54;20994;-69
2023/09/11 04:12:50;;;;;;;4.72;3.20;;;21.20;57.00;;;;;;2291519;55;21047;-68
2023/09/11 04:15:17;;;;;;;9.02;3.42;;;21.20;57.00;;;;;;2519461;54;21006;-69
2023/09/11 04:17:43;;;;;;;5.10;3.58;;;21.20;57.10;;;;;;2519477;54;20978;-69
2023/09/11 04:20:10;;;;;;;5.45;3.33;;;21.20;57.20;;;;;;2519846;54;20985;-68
2023/09/11 04:22:36;;;;;;;5.12;3.35;;;21.20;57.20;;;;;;2519941;54;20998;-67
2023/09/11 04:25:05;;;;;;;5.45;3.33;;;21.20;57.20;;;;;;2285886;55;20930;-68
2023/09/11 04:27:32;;;;;;;4.82;3.20;;;21.20;57.20;;;;;;2297591;55;21016;-68
2023/09/11 04:29:59;;;;;;;5.32;3.00;;;21.20;57.20;;;;;;2292661;55;21039;-67
2023/09/11 04:32:26;;;;;;;4.37;2.85;;;21.10;57.10;;;;;;2287044;55;21005;-69
2023/09/11 04:34:53;;;;;;;4.68;3.08;;;21.10;57.10;;;;;;2291984;55;21244;-68
2023/09/11 04:37:19;;;;;;;4.65;2.97;;;21.10;57.10;;;;;;2286228;55;21066;-67
2023/09/11 04:39:47;;;;;;;6.53;3.80;;;21.00;57.00;;;;;;2519633;54;20937;-68
2023/09/11 04:42:13;;;;;;;5.12;3.40;;;21.10;57.20;;;;;;2518569;54;21472;-68
2023/09/11 04:44:41;;;;;;;6.90;3.15;;;21.10;57.20;;;;;;2522168;54;20948;-65
2023/09/11 04:47:08;;;;;;;4.35;2.85;;;21.00;57.10;;;;;;2285612;55;21006;-67
2023/09/11 04:49:34;;;;;;;4.05;2.78;;;21.00;57.20;;;;;;2286348;55;20961;-65
2023/09/11 04:52:01;;;;;;;5.03;3.65;;;21.00;57.20;;;;;;2519857;54;20977;-68
2023/09/11 04:54:27;;;;;;;4.62;3.28;;;21.00;57.40;;;;;;2519403;54;20914;-69
2023/09/11 04:56:57;;;;;;;4.78;3.30;;;21.00;57.40;;;;;;2519419;54;20965;-69
2023/09/11 04:59:24;;;;;;;4.72;3.10;;;21.00;57.50;;;;;;2286059;55;20965;-68
2023/09/11 05:01:50;;;;;;;5.43;2.92;;;20.90;57.40;;;;;;2518560;54;21021;-68
2023/09/11 05:04:16;;;;;;;5.22;3.35;;;20.90;57.40;;;;;;2518844;54;20926;-69
2023/09/11 05:06:43;;;;;;;4.87;3.22;;;20.90;57.30;;;;;;2519783;54;20950;-69
2023/09/11 05:09:09;;;;;;;5.37;3.00;;;20.90;58.00;;;;;;2519521;54;20987;-70
2023/09/11 05:11:37;;;;;;;5.60;3.20;;;20.90;57.40;;;;;;2285528;55;20949;-71
2023/09/11 05:14:04;;;;;;;4.87;3.03;;;20.90;57.40;;;;;;2289553;55;20995;-69
2023/09/11 05:16:30;;;;;;;5.00;3.10;;;20.80;57.40;;;;;;2518033;54;20945;-71
2023/09/11 05:18:57;;;;;;;4.43;3.00;;;20.90;57.50;;;;;;2290822;55;21936;-69
2023/09/11 05:21:23;;;;;;;4.87;3.20;;;20.80;57.50;;;;;;2288010;55;20945;-69
2023/09/11 05:23:49;;;;;;;4.75;2.87;;;20.80;57.50;;;;;;2519846;54;20934;-69
2023/09/11 05:26:16;;;;;;;6.43;3.50;;;20.80;57.60;;;;;;2519837;54;20977;-69
2023/09/11 05:28:44;;;;;;;4.82;3.45;;;20.80;57.80;;;;;;2521370;54;20940;-70
2023/09/11 05:31:10;;;;;;;5.10;3.25;;;20.80;57.90;;;;;;2520262;54;20918;-68
2023/09/11 05:33:36;;;;;;;6.12;3.22;;;20.80;57.90;;;;;;2520896;54;20978;-69
2023/09/11 05:36:03;;;;;;;5.55;3.72;;;20.80;57.90;;;;;;2519147;54;20944;-72
2023/09/11 05:38:29;;;;;;;8.95;4.12;;;20.80;57.90;;;;;;2519054;54;20974;-68
2023/09/11 05:40:56;;;;;;;5.70;3.67;;;20.80;58.10;;;;;;2519438;54;20961;-68
2023/09/11 05:43:22;;;;;;;5.22;3.12;;;20.80;58.00;;;;;;2290362;55;22060;-69
2023/09/11 05:45:48;;;;;;;4.20;3.08;;;20.80;58.00;;;;;;2285734;55;20973;-69
2023/09/11 05:48:14;;;;;;;6.53;3.50;;;20.80;58.00;;;;;;2519596;54;20989;-69
2023/09/11 05:50:41;;;;;;;5.45;3.80;;;20.80;58.10;;;;;;2286147;55;20999;-70
2023/09/11 05:53:08;;;;;;;5.85;3.42;;;20.80;58.20;;;;;;2522920;54;20963;-70
2023/09/11 05:55:35;;;;;;;5.95;3.20;;;20.80;58.30;;;;;;2520012;54;21013;-68
2023/09/11 05:58:01;;;;;;;4.97;3.08;;;20.80;58.30;;;;;;2286252;55;21752;-70
2023/09/11 06:00:28;;;;;;;4.68;3.33;;;20.80;58.30;;;;;;2519616;54;20953;-68
2023/09/11 06:02:54;;;;;;;5.35;3.65;;;20.80;58.30;;;;;;2285372;55;21427;-72
2023/09/11 06:05:20;;;;;;;4.78;3.42;;;20.80;58.40;;;;;;2519215;54;21249;-68
2023/09/11 06:07:47;;;;;;;5.00;2.95;;;20.80;58.40;;;;;;2519681;54;20934;-69
2023/09/11 06:10:13;;;;;;;6.45;3.30;;;20.80;58.50;;;;;;2286456;55;21393;-68
2023/09/11 06:12:40;;;;;;;5.25;3.00;;;20.80;58.50;;;;;;2286776;55;21025;-69
2023/09/11 06:15:07;;;;;;;5.53;2.97;;;20.80;58.60;;;;;;2286454;55;21006;-72
2023/09/11 06:17:33;;;;;;;4.50;2.78;;;20.80;58.60;;;;;;2520367;54;22457;-71
2023/09/11 06:20:10;;;;;;;5.10;2.92;;;20.90;58.70;;;;;;2286065;55;21025;-71
2023/09/11 06:22:37;;;;;;;5.50;3.95;;;20.90;58.80;;;;;;2520043;54;21448;-70
2023/09/11 06:25:04;;;;;;;5.30;4.07;;;20.90;58.90;;;;;;2520091;54;20947;-69
2023/09/11 06:27:31;;;;;;;5.28;3.80;;;21.00;59.10;;;;;;2520893;54;21782;-70
2023/09/11 06:29:57;;;;;;;7.05;4.80;;;21.00;59.30;;;;;;2286243;55;20986;-69
2023/09/11 06:32:23;;;;;;;6.10;3.78;;;21.00;59.40;;;;;;2520879;54;20985;-69
2023/09/11 06:34:52;;;;;;;5.72;4.07;;;21.00;59.50;;;;;;2521778;54;20950;-71
2023/09/11 06:37:21;;;;;;;6.40;4.05;;;21.10;59.70;;;;;;2286529;55;20957;-70
2023/09/11 06:39:50;;;;;;;6.03;4.18;;;21.10;59.70;;;;;;2287187;55;21097;-70
2023/09/11 06:42:22;;;;;;;5.30;3.70;;;21.20;59.80;;;;;;2520531;54;21036;-69
2023/09/11 06:44:50;;;;;;;6.68;3.67;;;21.30;60.00;;;;;;2519816;54;21066;-69
2023/09/11 06:47:19;;;;;;;6.00;4.20;;;21.30;60.10;;;;;;2520128;54;21533;-66
2023/09/11 06:49:45;;;;;;;6.32;4.50;;;21.40;60.20;;;;;;2522500;54;20950;-68
2023/09/11 06:52:12;;;;;;;5.90;3.92;;;21.50;60.40;;;;;;2292106;55;21694;-70
2023/09/11 06:54:39;;;;;;;5.50;4.28;;;21.50;60.40;;;;;;2291064;55;20956;-68
2023/09/11 06:57:06;;;;;;;5.82;4.00;;;21.60;60.60;;;;;;2287460;55;20977;-66
2023/09/11 06:59:33;;;;;;;5.85;4.20;;;21.70;60.60;;;;;;2522348;54;21444;-68
2023/09/11 07:02:00;;;;;;;5.50;4.10;;;21.80;60.70;;;;;;2286674;55;20998;-67
2023/09/11 07:04:26;;;;;;;6.25;4.25;;;21.90;60.70;;;;;;2294688;55;21095;-69
2023/09/11 07:06:56;;;;;;;6.40;4.40;;;22.00;60.90;;;;;;2287486;55;20937;-68
2023/09/11 07:09:23;;;;;;;5.37;3.67;;;22.10;60.90;;;;;;2285712;55;21820;-69
2023/09/11 07:11:56;;;;;;;5.90;4.20;;;22.10;60.80;;;;;;2522600;54;21008;-68
2023/09/11 07:14:22;;;;;;;6.82;4.25;;;22.20;61.00;;;;;;2286244;55;20937;-70
2023/09/11 07:16:50;;;;;;;5.05;3.70;;;22.20;60.80;;;;;;2286230;55;20966;-72
2023/09/11 07:19:16;;;;;;;5.90;3.80;;;22.40;60.90;;;;;;2286341;55;20949;-67
2023/09/11 07:21:44;;;;;;;5.22;3.87;;;22.40;60.80;;;;;;2286318;55;21009;-68
2023/09/11 07:24:11;;;;;;;5.40;3.83;;;22.50;60.90;;;;;;2520309;54;21039;-69
2023/09/11 07:26:37;;;;;;;5.30;3.40;;;22.60;61.00;;;;;;2523553;54;21019;-70
2023/09/11 07:29:04;;;;;;;4.85;3.37;;;22.70;61.00;;;;;;2520239;54;20957;-72
2023/09/11 07:31:32;;;;;;;4.78;3.37;;;22.80;61.10;;;;;;2286021;55;21033;-71
2023/09/11 07:33:58;;;;;;;6.40;3.42;;;22.90;61.20;;;;;;2519227;54;20981;-70
2023/09/11 07:36:26;;;;;;;4.53;3.20;;;23.00;61.10;;;;;;2285906;55;21816;-71
2023/09/11 07:38:53;;;;;;;4.65;3.33;;;23.00;61.20;;;;;;2518630;54;20977;-72
2023/09/11 07:41:20;;;;;;;5.15;3.47;;;23.10;61.30;;;;;;2286333;55;20929;-66
2023/09/11 07:43:49;;;;;;;4.90;3.28;;;23.20;61.20;;;;;;2285963;55;21786;-66
2023/09/11 07:46:22;;;;;;;5.68;3.62;;;23.30;61.20;;;;;;2520240;54;20973;-69
2023/09/11 07:48:48;;;;;;;5.20;3.50;;;23.40;61.20;;;;;;2519555;54;21879;-69
2023/09/11 07:51:16;;;;;;;5.53;3.60;;;23.50;61.10;;;;;;2286447;55;20926;-68
2023/09/11 07:53:43;;;;;;;6.32;3.55;;;23.60;61.10;;;;;;2519432;54;20946;-66
2023/09/11 07:56:10;;;;;;;4.85;3.55;;;23.60;61.00;;;;;;2286251;55;20954;-70
2023/09/11 07:58:36;;;;;;;6.32;3.67;;;23.80;61.20;;;;;;2285927;55;21430;-67
2023/09/11 08:01:02;;;;;;;5.43;3.17;;;23.80;61.80;;;;;;2285574;55;20990;-67
2023/09/11 08:03:31;;;;;;;6.03;3.92;;;23.90;61.00;;;;;;2518235;54;20958;-67
2023/09/11 08:06:01;;;;;;;5.05;3.37;;;24.00;61.10;;;;;;2519352;54;21435;-70
2023/09/11 08:08:30;;;;;;;7.40;3.72;;;24.10;61.20;;;;;;2285872;55;21006;-68
2023/09/11 08:10:57;;;;;;;6.57;3.70;;;24.20;61.10;;;;;;2520390;54;20937;-68
2023/09/11 08:13:24;;;;;;;4.70;3.53;;;24.30;61.10;;;;;;2288111;55;20962;-67
2023/09/11 08:15:50;;;;;;;5.55;3.40;;;24.40;61.20;;;;;;2285654;55;21908;-68
2023/09/11 08:18:17;;;;;;;5.82;4.07;;;24.50;61.10;;;;;;2519730;54;21387;-69
2023/09/11 08:20:44;;;;;;;6.55;4.50;;;24.60;61.00;;;;;;2289084;55;21057;-71
2023/09/11 08:23:10;;;;;;;5.53;4.53;;;24.60;61.10;;;;;;2287410;55;21013;-68
2023/09/11 08:25:36;;;;;;;6.80;4.60;;;24.80;61.50;;;;;;2286173;55;21018;-69
2023/09/11 08:28:04;;;;;;;6.60;3.92;;;24.80;61.40;;;;;;2519542;54;21005;-69
2023/09/11 08:30:30;;;;;;;5.15;3.87;;;24.90;61.30;;;;;;2519006;54;21014;-70
2023/09/11 08:32:58;;;;;;;4.82;3.70;;;25.00;61.20;;;;;;2520404;54;21683;-68
2023/09/11 08:35:24;;;;;;;7.47;4.10;;;25.10;61.00;;;;;;2520628;54;20989;-69
2023/09/11 08:37:52;;;;;;;7.57;3.90;;;25.20;60.90;;;;;;2520697;54;20961;-68
2023/09/11 08:40:18;;;;;;;4.72;3.47;;;25.30;60.80;;;;;;2521204;54;20982;-69
2023/09/11 08:42:47;;;;;;;5.18;3.45;;;25.40;60.70;;;;;;2286608;55;20979;-70
2023/09/11 08:45:13;;;;;;;5.57;4.07;;;25.50;61.50;;;;;;2521099;54;21033;-70
2023/09/11 08:47:40;;;;;;;5.43;4.00;;;25.60;60.60;;;;;;2520319;54;20946;-69
2023/09/11 08:50:06;;;;;;;6.10;3.53;;;25.70;60.50;;;;;;2295209;55;20992;-68
2023/09/11 08:52:34;;;;;;;5.30;3.25;;;25.80;60.60;;;;;;2288299;55;21423;-69
2023/09/11 08:55:03;;;;;;;4.80;3.67;;;25.90;60.60;;;;;;2285899;55;20962;-69
2023/09/11 08:57:30;;;;;;;5.68;3.90;;;26.00;60.50;;;;;;2287380;55;20946;-70
2023/09/11 08:59:58;;;;;;;5.35;3.90;;;26.10;60.40;;;;;;2520433;54;20965;-69
2023/09/11 09:02:25;;;;;;;5.68;4.18;;;26.20;60.40;;;;;;2520514;54;21839;-70
2023/09/11 09:04:51;;;;;;;5.50;3.92;;;26.30;60.50;;;;;;2286376;55;20929;-71
2023/09/11 09:07:17;;;;;;;6.25;4.57;;;26.40;60.60;;;;;;2522474;54;20979;-69
2023/09/11 09:09:44;;;;;;;5.78;4.10;;;26.50;60.70;;;;;;2286209;55;21033;-70
2023/09/11 09:12:10;;;;;;;6.20;4.32;;;26.60;60.50;;;;;;2286201;55;20961;-69
2023/09/11 09:14:39;;;;;;;5.97;4.25;;;26.70;60.30;;;;;;2520002;54;21002;-69
2023/09/11 09:17:06;;;;;;;6.97;4.03;;;26.80;60.10;;;;;;2285881;55;20961;-68
2023/09/11 09:19:33;;;;;;;5.37;3.97;;;26.90;60.00;;;;;;2286697;55;20993;-71
2023/09/11 09:22:18;;;;;;;4.95;3.47;;;27.00;59.80;;;;;;2285906;55;21042;-69
2023/09/11 09:24:51;;;;;;;5.37;3.70;;;27.10;59.60;;;;;;2286069;55;21058;-71
2023/09/11 09:27:18;;;;;;;5.65;4.20;;;27.20;59.70;;;;;;2520102;54;21065;-70
2023/09/11 09:29:47;;;;;;;6.80;4.03;;;27.30;59.60;;;;;;2285902;55;21002;-69
2023/09/11 09:32:14;;;;;;;5.93;3.97;;;27.40;59.50;;;;;;2285451;55;20950;-68
2023/09/11 09:34:49;;;;;;;5.53;3.75;;;27.50;59.40;;;;;;2519211;54;20985;-71
2023/09/11 09:37:17;;;;;;;6.12;3.70;;;27.60;59.00;;;;;;2519868;54;20934;-71
2023/09/11 09:39:44;;;;;;;5.50;3.58;;;27.70;59.00;;;;;;2519460;54;21015;-71
2023/09/11 09:42:12;;;;;;;6.57;3.90;;;27.80;58.90;;;;;;2285932;55;20978;-70
2023/09/11 09:44:48;;;;;;;6.25;3.72;;;27.80;58.70;;;;;;2285823;55;20969;-69
2023/09/11 09:47:19;;;;;;;5.18;3.55;;;27.90;58.50;;;;;;2286044;55;20954;-70
2023/09/11 09:49:52;;;;;;;4.62;3.40;;;28.00;58.40;;;;;;2286052;55;21013;-71
2023/09/11 09:52:24;;;;;;;5.60;3.45;;;28.10;58.20;;;;;;2292381;55;21066;-71
2023/09/11 09:54:57;;;;;;;5.80;3.50;;;28.20;58.20;;;;;;2520685;54;20938;-68
2023/09/11 09:57:24;;;;;;;5.35;3.70;;;28.30;58.30;;;;;;2520284;54;21001;-67
2023/09/11 09:59:57;;;;;;;5.30;3.40;;;28.30;58.10;;;;;;2285533;55;20934;-67
2023/09/11 10:02:32;;;;;;;5.10;3.80;;;28.40;57.80;;;;;;2520095;54;21006;-70
2023/09/11 10:05:08;;;;;;;4.97;3.55;;;28.50;57.70;;;;;;2290519;55;20971;-70
2023/09/11 10:07:44;;;;;;;4.78;3.40;;;28.60;57.40;;;;;;2287382;55;20965;-67
2023/09/11 10:10:29;;;;;;;5.18;3.40;;;28.70;57.10;;;;;;2520296;54;20942;-69
2023/09/11 10:13:12;;;;;;;5.12;3.37;;;28.80;56.90;;;;;;2285389;55;20996;-70
2023/09/11 10:15:40;;;;;;;4.82;3.70;;;28.80;57.00;;;;;;2519609;54;21565;-70
2023/09/11 10:18:08;;;;;;;4.70;3.60;;;28.90;57.00;;;;;;2519348;54;20934;-67
2023/09/11 10:20:35;;;;;;;4.60;3.15;;;28.90;56.70;;;;;;2286561;55;21002;-68
2023/09/11 10:23:03;;;;;;;4.80;2.92;;;29.00;56.50;;;;;;2285072;55;21719;-68
2023/09/11 10:25:40;;;;;;;5.85;3.85;;;29.10;56.40;;;;;;2285755;55;20973;-68
2023/09/11 10:28:10;;;;;;;6.15;3.60;;;29.20;56.20;;;;;;2286020;55;20976;-66
2023/09/11 10:31:25;;;;;;;5.00;2.97;;;29.20;55.90;;;;;;2286369;55;21473;-67
2023/09/11 10:33:55;;;;;;;4.60;3.40;;;29.40;55.20;;;;;;2518041;54;21056;-70
2023/09/11 10:36:23;;;;;;;4.28;3.00;;;29.40;55.40;;;;;;2519292;54;20934;-70
2023/09/11 10:38:50;;;;;;;4.18;3.05;;;29.50;55.40;;;;;;2519596;54;20994;-69
2023/09/11 10:41:17;;;;;;;4.57;3.08;;;29.60;55.10;;;;;;2284826;55;21014;-69
2023/09/11 10:43:45;;;;;;;4.85;3.30;;;29.70;55.00;;;;;;2522137;54;20963;-70
2023/09/11 10:46:39;;;;;;;5.55;2.75;;;29.70;54.80;;;;;;2284947;55;21770;-69
2023/09/11 10:49:16;;;;;;;4.10;2.70;;;29.80;55.20;;;;;;2269948;55;21029;-68
2023/09/11 10:51:42;;;;;;;6.43;2.92;;;30.00;54.30;;;;;;2284105;55;20954;-67
2023/09/11 10:54:11;;;;;;;5.10;3.35;;;30.00;54.50;;;;;;2287332;55;20965;-69
2023/09/11 10:56:37;;;;;;;3.97;2.87;;;30.10;54.30;;;;;;2286418;55;21097;-67
2023/09/11 10:59:04;;;;;;;6.35;3.10;;;30.20;54.30;;;;;;2519265;54;20965;-67
2023/09/11 11:01:32;;;;;;;5.50;3.12;;;30.30;54.30;;;;;;2291326;55;20979;-68
2023/09/11 11:04:04;;;;;;;4.60;3.30;;;30.30;54.10;;;;;;2287162;55;21017;-70
2023/09/11 11:06:33;;;;;;;3.95;2.80;;;30.40;53.90;;;;;;2286815;55;20987;-68
2023/09/11 11:09:00;;;;;;;4.05;3.05;;;30.50;53.80;;;;;;2286043;55;21041;-69
2023/09/11 11:11:27;;;;;;;4.62;3.15;;;30.60;53.70;;;;;;2520235;54;21482;-68
2023/09/11 11:14:12;;;;;;;5.07;3.25;;;30.70;53.60;;;;;;2285610;55;20958;-70
2023/09/11 11:16:39;;;;;;;4.93;3.10;;;30.70;52.80;;;;;;2520271;54;21025;-69
2023/09/11 11:19:05;;;;;;;5.50;2.92;;;30.80;53.30;;;;;;2290258;55;21452;-68
2023/09/11 11:21:39;;;;;;;4.37;2.85;;;30.90;53.30;;;;;;2286998;55;21033;-68
2023/09/11 11:24:06;;;;;;;4.53;3.40;;;30.90;52.80;;;;;;2295135;55;22010;-68
2023/09/11 11:26:35;;;;;;;5.20;3.28;;;31.00;52.90;;;;;;2291863;55;22058;-68
2023/09/11 11:29:02;;;;;;;4.20;2.83;;;31.10;52.60;;;;;;2295354;55;21016;-68
2023/09/11 11:31:29;;;;;;;5.12;2.97;;;31.10;52.70;;;;;;2289243;55;21017;-68
2023/09/11 11:33:56;;;;;;;4.75;3.40;;;31.20;52.50;;;;;;2285951;55;21414;-67
2023/09/11 11:36:24;;;;;;;4.72;2.87;;;31.30;52.50;;;;;;2286548;55;21002;-69
2023/09/11 11:38:55;;;;;;;4.15;3.12;;;31.30;52.10;;;;;;2289508;55;20954;-68
2023/09/11 11:41:22;;;;;;;;;;;31.40;51.90;;;;;;2289108;55;20953;-67
2023/09/11 11:43:48;;;;;;;4.37;2.85;;;31.50;52.00;;;;;;2285471;55;20077;-68
2023/09/11 11:46:18;;;;;;;4.28;3.15;;;31.50;51.90;;;;;;2520635;54;20918;-70
2023/09/11 11:48:44;;;;;;;4.50;2.97;;;31.60;51.80;;;;;;2519767;54;20942;-68
2023/09/11 11:51:11;;;;;;;4.15;2.83;;;31.60;51.50;;;;;;2497788;55;20954;-68
2023/09/11 11:53:39;;;;;;;5.40;3.58;;;31.60;51.50;;;;;;2285833;55;21538;-68
2023/09/11 11:56:05;;;;;;;4.22;3.15;;;31.70;51.40;;;;;;2285099;55;20962;-69
2023/09/11 11:58:32;;;;;;;6.18;3.83;;;31.80;51.50;;;;;;2291155;55;21029;-68
2023/09/11 12:01:02;;;;;;;4.93;3.50;;;31.80;51.40;;;;;;2286777;55;20957;-70
2023/09/11 12:03:32;;;;;;;5.05;3.58;;;31.90;51.50;;;;;;2521594;54;21449;-69
2023/09/11 12:06:01;;;;;;;6.65;3.75;;;31.90;51.10;;;;;;2521944;54;22035;-68
2023/09/11 12:08:28;;;;;;;5.55;3.30;;;31.90;51.00;;;;;;2519805;54;20941;-68
2023/09/11 12:10:54;;;;;;;8.65;3.15;;;32.00;51.10;;;;;;2285104;55;20922;-71
2023/09/11 12:13:24;;;;;;;5.05;3.17;;;32.10;51.10;;;;;;2521017;54;21052;-68
2023/09/11 12:15:58;;;;;;;4.35;3.28;;;32.10;50.90;;;;;;2286161;55;21758;-69
2023/09/11 12:18:28;;;;;;;4.70;3.30;;;32.20;50.50;;;;;;2285745;55;21747;-69
2023/09/11 12:21:03;;;;;;;5.70;3.10;;;32.20;50.70;;;;;;2519096;54;21006;-68
2023/09/11 12:23:31;;;;;;;4.87;3.10;;;32.30;49.80;;;;;;2286025;55;21265;-68
2023/09/11 12:25:57;;;;;;;4.32;3.17;;;32.30;50.00;;;;;;2284116;55;20965;-68
2023/09/11 12:28:23;;;;;;;6.03;3.30;;;32.40;50.00;;;;;;2290964;55;20975;-69
2023/09/11 12:30:50;;;;;;;5.12;3.60;;;32.40;49.80;;;;;;2519594;54;20934;-70
2023/09/11 12:33:27;;;;;;;5.90;3.22;;;32.50;49.90;;;;;;2519473;54;20926;-70
2023/09/11 12:35:54;;;;;;;5.12;3.15;;;32.50;49.60;;;;;;2285070;55;21445;-69
2023/09/11 12:38:22;;;;;;;4.45;2.97;;;32.60;49.60;;;;;;2285525;55;20946;-69
2023/09/11 12:40:50;;;;;;;5.57;2.80;;;32.70;49.60;;;;;;2285315;55;20937;-67
2023/09/11 12:43:16;;;;;;;4.85;2.67;;;32.70;49.50;;;;;;2285625;55;20970;-69
2023/09/11 12:45:43;;;;;;;3.55;2.60;;;32.70;49.30;;;;;;2519675;54;21093;-69
2023/09/11 12:48:09;;;;;;;4.12;2.72;;;32.80;49.00;;;;;;2519124;54;21408;-69
2023/09/11 12:50:38;;;;;;;4.20;2.60;;;32.90;48.80;;;;;;2285789;55;20950;-69
2023/09/11 12:53:05;;;;;;;4.22;2.37;;;32.90;48.50;;;;;;2290185;55;20972;-68
2023/09/11 12:55:32;;;;;;;3.50;2.28;;;32.90;48.10;;;;;;2286642;55;20954;-69
2023/09/11 12:57:59;;;;;;;4.32;2.47;;;33.00;48.10;;;;;;2284983;55;21830;-67